sensor_id;sensor_type;location;lat;lon;timestamp;P1;durP1;ratioP1;P2;durP2;ratioP2
78296;SDS011;67555;47.660;19.622;2023-09-30T00:01:00;12.20;;;6.65;;
78296;SDS011;67555;47.660;19.622;2023-09-30T00:03:27;10.75;;;6.75;;
78296;SDS011;67555;47.660;19.622;2023-09-30T00:05:53;13.77;;;6.43;;
78296;SDS011;67555;47.660;19.622;2023-09-30T00:08:19;10.00;;;6.38;;
78296;SDS011;67555;47.660;19.622;2023-09-30T00:10:45;12.98;;;7.13;;
78296;SDS011;67555;47.660;19.622;2023-09-30T00:13:12;12.50;;;7.10;;
78296;SDS011;67555;47.660;19.622;2023-09-30T00:15:38;13.80;;;7.38;;
78296;SDS011;67555;47.660;19.622;2023-09-30T00:18:05;9.60;;;6.22;;
78296;SDS011;67555;47.660;19.622;2023-09-30T00:20:31;13.27;;;6.45;;
78296;SDS011;67555;47.660;19.622;2023-09-30T00:22:57;16.77;;;7.20;;
78296;SDS011;67555;47.660;19.622;2023-09-30T00:25:23;11.55;;;7.03;;
78296;SDS011;67555;47.660;19.622;2023-09-30T00:27:49;15.73;;;6.80;;
78296;SDS011;67555;47.660;19.622;2023-09-30T00:30:14;12.00;;;5.68;;
78296;SDS011;67555;47.660;19.622;2023-09-30T00:32:41;13.30;;;6.63;;
78296;SDS011;67555;47.660;19.622;2023-09-30T00:35:07;16.55;;;7.57;;
78296;SDS011;67555;47.660;19.622;2023-09-30T00:37:39;15.88;;;7.32;;
78296;SDS011;67555;47.660;19.622;2023-09-30T00:40:05;12.52;;;7.05;;
78296;SDS011;67555;47.660;19.622;2023-09-30T00:42:32;17.60;;;7.68;;
78296;SDS011;67555;47.660;19.622;2023-09-30T00:44:58;10.77;;;6.00;;
78296;SDS011;67555;47.660;19.622;2023-09-30T00:47:24;12.07;;;6.00;;
78296;SDS011;67555;47.660;19.622;2023-09-30T00:49:51;12.40;;;6.68;;
78296;SDS011;67555;47.660;19.622;2023-09-30T00:52:18;18.20;;;7.72;;
78296;SDS011;67555;47.660;19.622;2023-09-30T00:54:45;16.50;;;6.88;;
78296;SDS011;67555;47.660;19.622;2023-09-30T00:57:12;16.92;;;7.10;;
78296;SDS011;67555;47.660;19.622;2023-09-30T00:59:41;21.40;;;7.15;;
78296;SDS011;67555;47.660;19.622;2023-09-30T01:02:07;14.73;;;8.07;;
78296;SDS011;67555;47.660;19.622;2023-09-30T01:04:33;11.20;;;7.65;;
78296;SDS011;67555;47.660;19.622;2023-09-30T01:07:01;17.83;;;8.20;;
78296;SDS011;67555;47.660;19.622;2023-09-30T01:09:27;12.77;;;6.40;;
78296;SDS011;67555;47.660;19.622;2023-09-30T01:11:53;15.73;;;7.68;;
78296;SDS011;67555;47.660;19.622;2023-09-30T01:14:25;22.95;;;6.97;;
78296;SDS011;67555;47.660;19.622;2023-09-30T01:16:55;12.82;;;6.90;;
78296;SDS011;67555;47.660;19.622;2023-09-30T01:19:22;15.40;;;6.20;;
78296;SDS011;67555;47.660;19.622;2023-09-30T01:21:58;9.73;;;6.30;;
78296;SDS011;67555;47.660;19.622;2023-09-30T01:24:25;17.55;;;6.90;;
78296;SDS011;67555;47.660;19.622;2023-09-30T01:26:51;12.85;;;7.10;;
78296;SDS011;67555;47.660;19.622;2023-09-30T01:29:18;11.23;;;6.38;;
78296;SDS011;67555;47.660;19.622;2023-09-30T01:31:44;10.02;;;6.20;;
78296;SDS011;67555;47.660;19.622;2023-09-30T01:36:39;12.43;;;6.25;;
78296;SDS011;67555;47.660;19.622;2023-09-30T01:39:05;12.27;;;6.35;;
78296;SDS011;67555;47.660;19.622;2023-09-30T01:41:32;11.02;;;6.97;;
78296;SDS011;67555;47.660;19.622;2023-09-30T01:43:58;12.43;;;6.68;;
78296;SDS011;67555;47.660;19.622;2023-09-30T01:46:23;16.25;;;6.68;;
78296;SDS011;67555;47.660;19.622;2023-09-30T01:48:49;19.10;;;6.93;;
78296;SDS011;67555;47.660;19.622;2023-09-30T01:51:15;11.80;;;5.57;;
78296;SDS011;67555;47.660;19.622;2023-09-30T01:53:42;12.73;;;7.00;;
78296;SDS011;67555;47.660;19.622;2023-09-30T01:56:08;11.93;;;5.53;;
78296;SDS011;67555;47.660;19.622;2023-09-30T01:58:33;11.48;;;7.22;;
78296;SDS011;67555;47.660;19.622;2023-09-30T02:01:03;12.50;;;7.10;;
78296;SDS011;67555;47.660;19.622;2023-09-30T02:03:29;16.80;;;7.35;;
78296;SDS011;67555;47.660;19.622;2023-09-30T02:05:59;13.38;;;6.85;;
78296;SDS011;67555;47.660;19.622;2023-09-30T02:08:26;14.60;;;7.13;;
78296;SDS011;67555;47.660;19.622;2023-09-30T02:10:51;12.82;;;6.53;;
78296;SDS011;67555;47.660;19.622;2023-09-30T02:13:17;12.65;;;6.25;;
78296;SDS011;67555;47.660;19.622;2023-09-30T02:15:43;14.45;;;7.00;;
78296;SDS011;67555;47.660;19.622;2023-09-30T02:18:09;15.35;;;6.80;;
78296;SDS011;67555;47.660;19.622;2023-09-30T02:20:36;12.40;;;6.22;;
78296;SDS011;67555;47.660;19.622;2023-09-30T02:23:09;15.73;;;7.80;;
78296;SDS011;67555;47.660;19.622;2023-09-30T02:25:41;14.48;;;5.63;;
78296;SDS011;67555;47.660;19.622;2023-09-30T02:28:08;13.60;;;6.57;;
78296;SDS011;67555;47.660;19.622;2023-09-30T02:30:35;11.85;;;6.50;;
78296;SDS011;67555;47.660;19.622;2023-09-30T02:33:01;11.52;;;5.93;;
78296;SDS011;67555;47.660;19.622;2023-09-30T02:35:28;13.65;;;5.97;;
78296;SDS011;67555;47.660;19.622;2023-09-30T02:37:54;13.63;;;6.60;;
78296;SDS011;67555;47.660;19.622;2023-09-30T02:40:20;13.85;;;6.82;;
78296;SDS011;67555;47.660;19.622;2023-09-30T02:42:49;12.07;;;6.45;;
78296;SDS011;67555;47.660;19.622;2023-09-30T02:45:16;11.68;;;6.53;;
78296;SDS011;67555;47.660;19.622;2023-09-30T02:47:42;13.82;;;7.00;;
78296;SDS011;67555;47.660;19.622;2023-09-30T02:50:08;15.13;;;6.63;;
78296;SDS011;67555;47.660;19.622;2023-09-30T02:52:38;11.82;;;6.07;;
78296;SDS011;67555;47.660;19.622;2023-09-30T02:57:33;13.52;;;6.13;;
78296;SDS011;67555;47.660;19.622;2023-09-30T03:00:01;12.35;;;6.45;;
78296;SDS011;67555;47.660;19.622;2023-09-30T03:02:57;14.90;;;6.80;;
78296;SDS011;67555;47.660;19.622;2023-09-30T03:05:23;15.15;;;8.18;;
78296;SDS011;67555;47.660;19.622;2023-09-30T03:07:49;12.52;;;5.95;;
78296;SDS011;67555;47.660;19.622;2023-09-30T03:10:15;11.73;;;7.10;;
78296;SDS011;67555;47.660;19.622;2023-09-30T03:12:55;12.77;;;6.90;;
78296;SDS011;67555;47.660;19.622;2023-09-30T03:15:21;12.48;;;6.75;;
78296;SDS011;67555;47.660;19.622;2023-09-30T03:17:47;12.70;;;7.07;;
78296;SDS011;67555;47.660;19.622;2023-09-30T03:20:13;11.10;;;6.10;;
78296;SDS011;67555;47.660;19.622;2023-09-30T03:22:43;12.75;;;7.25;;
78296;SDS011;67555;47.660;19.622;2023-09-30T03:25:12;12.77;;;7.35;;
78296;SDS011;67555;47.660;19.622;2023-09-30T03:27:40;11.15;;;6.95;;
78296;SDS011;67555;47.660;19.622;2023-09-30T03:30:06;11.18;;;6.32;;
78296;SDS011;67555;47.660;19.622;2023-09-30T03:32:33;16.40;;;6.63;;
78296;SDS011;67555;47.660;19.622;2023-09-30T03:35:03;12.18;;;6.28;;
78296;SDS011;67555;47.660;19.622;2023-09-30T03:37:31;14.52;;;6.70;;
78296;SDS011;67555;47.660;19.622;2023-09-30T03:39:57;18.33;;;8.00;;
78296;SDS011;67555;47.660;19.622;2023-09-30T03:42:23;12.63;;;6.50;;
78296;SDS011;67555;47.660;19.622;2023-09-30T03:44:49;16.73;;;7.28;;
78296;SDS011;67555;47.660;19.622;2023-09-30T03:47:15;14.85;;;7.38;;
78296;SDS011;67555;47.660;19.622;2023-09-30T03:49:42;12.57;;;6.85;;
78296;SDS011;67555;47.660;19.622;2023-09-30T03:52:08;14.98;;;7.53;;
78296;SDS011;67555;47.660;19.622;2023-09-30T03:54:34;17.10;;;8.35;;
78296;SDS011;67555;47.660;19.622;2023-09-30T03:57:00;16.23;;;7.80;;
78296;SDS011;67555;47.660;19.622;2023-09-30T03:59:27;13.82;;;7.55;;
78296;SDS011;67555;47.660;19.622;2023-09-30T04:01:53;16.67;;;7.88;;
78296;SDS011;67555;47.660;19.622;2023-09-30T04:04:19;13.02;;;6.88;;
78296;SDS011;67555;47.660;19.622;2023-09-30T04:06:46;11.73;;;7.18;;
78296;SDS011;67555;47.660;19.622;2023-09-30T04:09:13;12.35;;;7.68;;
78296;SDS011;67555;47.660;19.622;2023-09-30T04:11:39;14.38;;;7.15;;
78296;SDS011;67555;47.660;19.622;2023-09-30T04:14:07;17.08;;;8.25;;
78296;SDS011;67555;47.660;19.622;2023-09-30T04:16:34;15.25;;;7.93;;
78296;SDS011;67555;47.660;19.622;2023-09-30T04:19:01;13.95;;;8.07;;
78296;SDS011;67555;47.660;19.622;2023-09-30T04:21:27;17.70;;;7.18;;
78296;SDS011;67555;47.660;19.622;2023-09-30T04:23:54;13.48;;;7.65;;
78296;SDS011;67555;47.660;19.622;2023-09-30T04:26:21;11.45;;;6.30;;
78296;SDS011;67555;47.660;19.622;2023-09-30T04:28:51;13.60;;;7.20;;
78296;SDS011;67555;47.660;19.622;2023-09-30T04:31:19;13.38;;;6.97;;
78296;SDS011;67555;47.660;19.622;2023-09-30T04:33:46;13.13;;;7.82;;
78296;SDS011;67555;47.660;19.622;2023-09-30T04:36:13;10.77;;;7.32;;
78296;SDS011;67555;47.660;19.622;2023-09-30T04:38:39;11.75;;;7.20;;
78296;SDS011;67555;47.660;19.622;2023-09-30T04:41:04;13.55;;;6.88;;
78296;SDS011;67555;47.660;19.622;2023-09-30T04:43:32;13.05;;;7.20;;
78296;SDS011;67555;47.660;19.622;2023-09-30T04:45:58;10.82;;;7.00;;
78296;SDS011;67555;47.660;19.622;2023-09-30T04:48:24;10.77;;;7.18;;
78296;SDS011;67555;47.660;19.622;2023-09-30T04:50:50;13.98;;;6.72;;
78296;SDS011;67555;47.660;19.622;2023-09-30T04:53:17;11.10;;;5.75;;
78296;SDS011;67555;47.660;19.622;2023-09-30T04:55:45;17.88;;;7.35;;
78296;SDS011;67555;47.660;19.622;2023-09-30T04:58:14;10.05;;;6.30;;
78296;SDS011;67555;47.660;19.622;2023-09-30T05:00:40;11.10;;;6.57;;
78296;SDS011;67555;47.660;19.622;2023-09-30T05:03:05;19.90;;;6.75;;
78296;SDS011;67555;47.660;19.622;2023-09-30T05:05:32;15.23;;;6.80;;
78296;SDS011;67555;47.660;19.622;2023-09-30T05:07:59;10.75;;;6.43;;
78296;SDS011;67555;47.660;19.622;2023-09-30T05:10:25;13.80;;;5.90;;
78296;SDS011;67555;47.660;19.622;2023-09-30T05:12:51;12.35;;;5.97;;
78296;SDS011;67555;47.660;19.622;2023-09-30T05:15:19;11.13;;;6.65;;
78296;SDS011;67555;47.660;19.622;2023-09-30T05:17:46;9.80;;;6.07;;
78296;SDS011;67555;47.660;19.622;2023-09-30T05:20:13;12.30;;;6.97;;
78296;SDS011;67555;47.660;19.622;2023-09-30T05:22:42;12.63;;;7.97;;
78296;SDS011;67555;47.660;19.622;2023-09-30T05:27:37;13.48;;;7.10;;
78296;SDS011;67555;47.660;19.622;2023-09-30T05:30:03;14.00;;;8.32;;
78296;SDS011;67555;47.660;19.622;2023-09-30T05:34:58;11.88;;;6.10;;
78296;SDS011;67555;47.660;19.622;2023-09-30T05:37:30;15.20;;;6.78;;
78296;SDS011;67555;47.660;19.622;2023-09-30T05:39:56;15.18;;;7.35;;
78296;SDS011;67555;47.660;19.622;2023-09-30T05:42:22;15.07;;;8.45;;
78296;SDS011;67555;47.660;19.622;2023-09-30T05:44:49;16.40;;;8.63;;
78296;SDS011;67555;47.660;19.622;2023-09-30T05:47:16;21.88;;;8.02;;
78296;SDS011;67555;47.660;19.622;2023-09-30T05:49:42;19.33;;;6.88;;
78296;SDS011;67555;47.660;19.622;2023-09-30T05:52:07;11.40;;;6.47;;
78296;SDS011;67555;47.660;19.622;2023-09-30T05:54:33;16.30;;;7.60;;
78296;SDS011;67555;47.660;19.622;2023-09-30T05:56:59;10.18;;;6.70;;
78296;SDS011;67555;47.660;19.622;2023-09-30T05:59:25;13.23;;;7.55;;
78296;SDS011;67555;47.660;19.622;2023-09-30T06:01:53;14.50;;;7.38;;
78296;SDS011;67555;47.660;19.622;2023-09-30T06:04:19;14.77;;;7.72;;
78296;SDS011;67555;47.660;19.622;2023-09-30T06:06:46;12.23;;;6.88;;
78296;SDS011;67555;47.660;19.622;2023-09-30T06:09:11;12.55;;;7.50;;
78296;SDS011;67555;47.660;19.622;2023-09-30T06:11:38;12.32;;;7.35;;
78296;SDS011;67555;47.660;19.622;2023-09-30T06:14:06;12.32;;;7.28;;
78296;SDS011;67555;47.660;19.622;2023-09-30T06:16:32;14.85;;;7.32;;
78296;SDS011;67555;47.660;19.622;2023-09-30T06:18:59;13.68;;;7.53;;
78296;SDS011;67555;47.660;19.622;2023-09-30T06:21:25;13.35;;;7.32;;
78296;SDS011;67555;47.660;19.622;2023-09-30T06:23:54;15.13;;;6.95;;
78296;SDS011;67555;47.660;19.622;2023-09-30T06:26:20;10.82;;;6.88;;
78296;SDS011;67555;47.660;19.622;2023-09-30T06:28:46;18.67;;;7.05;;
78296;SDS011;67555;47.660;19.622;2023-09-30T06:31:13;12.70;;;7.32;;
78296;SDS011;67555;47.660;19.622;2023-09-30T06:33:40;13.43;;;6.25;;
78296;SDS011;67555;47.660;19.622;2023-09-30T06:36:09;11.15;;;6.82;;
78296;SDS011;67555;47.660;19.622;2023-09-30T06:38:42;12.65;;;6.72;;
78296;SDS011;67555;47.660;19.622;2023-09-30T06:41:08;12.93;;;7.38;;
78296;SDS011;67555;47.660;19.622;2023-09-30T06:43:40;11.35;;;6.53;;
78296;SDS011;67555;47.660;19.622;2023-09-30T06:46:06;12.32;;;6.43;;
78296;SDS011;67555;47.660;19.622;2023-09-30T06:48:34;9.73;;;6.38;;
78296;SDS011;67555;47.660;19.622;2023-09-30T06:51:00;13.23;;;6.38;;
78296;SDS011;67555;47.660;19.622;2023-09-30T06:53:27;21.17;;;6.93;;
78296;SDS011;67555;47.660;19.622;2023-09-30T06:55:52;12.63;;;6.40;;
78296;SDS011;67555;47.660;19.622;2023-09-30T06:58:18;14.45;;;6.65;;
78296;SDS011;67555;47.660;19.622;2023-09-30T07:00:49;11.15;;;6.25;;
78296;SDS011;67555;47.660;19.622;2023-09-30T07:03:16;13.73;;;5.95;;
78296;SDS011;67555;47.660;19.622;2023-09-30T07:05:42;10.23;;;5.78;;
78296;SDS011;67555;47.660;19.622;2023-09-30T07:08:11;12.18;;;6.35;;
78296;SDS011;67555;47.660;19.622;2023-09-30T07:10:37;13.00;;;7.25;;
78296;SDS011;67555;47.660;19.622;2023-09-30T07:13:03;12.05;;;6.80;;
78296;SDS011;67555;47.660;19.622;2023-09-30T07:15:31;13.25;;;7.18;;
78296;SDS011;67555;47.660;19.622;2023-09-30T07:17:57;12.57;;;6.68;;
78296;SDS011;67555;47.660;19.622;2023-09-30T07:20:23;14.10;;;6.45;;
78296;SDS011;67555;47.660;19.622;2023-09-30T07:22:49;14.38;;;6.22;;
78296;SDS011;67555;47.660;19.622;2023-09-30T07:25:16;10.07;;;6.35;;
78296;SDS011;67555;47.660;19.622;2023-09-30T07:27:43;12.60;;;7.05;;
78296;SDS011;67555;47.660;19.622;2023-09-30T07:30:13;10.23;;;6.00;;
78296;SDS011;67555;47.660;19.622;2023-09-30T07:32:42;11.57;;;6.80;;
78296;SDS011;67555;47.660;19.622;2023-09-30T07:35:09;10.20;;;6.07;;
78296;SDS011;67555;47.660;19.622;2023-09-30T07:37:36;21.20;;;6.50;;
78296;SDS011;67555;47.660;19.622;2023-09-30T07:40:02;11.45;;;6.93;;
78296;SDS011;67555;47.660;19.622;2023-09-30T07:42:28;9.00;;;5.53;;
78296;SDS011;67555;47.660;19.622;2023-09-30T07:44:53;10.18;;;6.25;;
78296;SDS011;67555;47.660;19.622;2023-09-30T07:47:19;12.95;;;6.82;;
78296;SDS011;67555;47.660;19.622;2023-09-30T07:49:45;10.00;;;6.43;;
78296;SDS011;67555;47.660;19.622;2023-09-30T07:52:11;14.88;;;5.90;;
78296;SDS011;67555;47.660;19.622;2023-09-30T07:54:37;10.25;;;5.90;;
78296;SDS011;67555;47.660;19.622;2023-09-30T07:57:03;10.13;;;5.32;;
78296;SDS011;67555;47.660;19.622;2023-09-30T07:59:29;14.63;;;6.63;;
78296;SDS011;67555;47.660;19.622;2023-09-30T08:01:55;11.55;;;6.35;;
78296;SDS011;67555;47.660;19.622;2023-09-30T08:04:22;12.18;;;6.35;;
78296;SDS011;67555;47.660;19.622;2023-09-30T08:06:48;10.70;;;6.18;;
78296;SDS011;67555;47.660;19.622;2023-09-30T08:09:16;11.82;;;6.18;;
78296;SDS011;67555;47.660;19.622;2023-09-30T08:11:43;13.15;;;5.97;;
78296;SDS011;67555;47.660;19.622;2023-09-30T08:14:09;11.15;;;6.00;;
78296;SDS011;67555;47.660;19.622;2023-09-30T08:16:36;13.88;;;5.72;;
78296;SDS011;67555;47.660;19.622;2023-09-30T08:19:03;13.98;;;6.75;;
78296;SDS011;67555;47.660;19.622;2023-09-30T08:21:29;15.25;;;6.40;;
78296;SDS011;67555;47.660;19.622;2023-09-30T08:23:55;11.52;;;5.95;;
78296;SDS011;67555;47.660;19.622;2023-09-30T08:26:30;11.25;;;6.18;;
78296;SDS011;67555;47.660;19.622;2023-09-30T08:28:56;13.23;;;5.95;;
78296;SDS011;67555;47.660;19.622;2023-09-30T08:31:23;10.02;;;6.60;;
78296;SDS011;67555;47.660;19.622;2023-09-30T08:33:49;12.77;;;6.03;;
78296;SDS011;67555;47.660;19.622;2023-09-30T08:36:15;13.77;;;5.93;;
78296;SDS011;67555;47.660;19.622;2023-09-30T08:38:40;9.88;;;5.53;;
78296;SDS011;67555;47.660;19.622;2023-09-30T08:41:07;13.40;;;5.93;;
78296;SDS011;67555;47.660;19.622;2023-09-30T08:43:39;10.93;;;5.78;;
78296;SDS011;67555;47.660;19.622;2023-09-30T08:46:07;11.65;;;5.32;;
78296;SDS011;67555;47.660;19.622;2023-09-30T08:48:33;14.45;;;5.85;;
78296;SDS011;67555;47.660;19.622;2023-09-30T08:51:00;7.90;;;5.72;;
78296;SDS011;67555;47.660;19.622;2023-09-30T08:53:26;10.70;;;5.80;;
78296;SDS011;67555;47.660;19.622;2023-09-30T08:55:54;9.45;;;5.47;;
78296;SDS011;67555;47.660;19.622;2023-09-30T08:58:26;8.65;;;5.40;;
78296;SDS011;67555;47.660;19.622;2023-09-30T09:00:53;8.65;;;5.10;;
78296;SDS011;67555;47.660;19.622;2023-09-30T09:03:19;8.75;;;4.97;;
78296;SDS011;67555;47.660;19.622;2023-09-30T09:05:46;13.90;;;6.15;;
78296;SDS011;67555;47.660;19.622;2023-09-30T09:08:19;11.48;;;5.88;;
78296;SDS011;67555;47.660;19.622;2023-09-30T09:13:28;13.38;;;6.28;;
78296;SDS011;67555;47.660;19.622;2023-09-30T09:16:09;8.05;;;5.15;;
78296;SDS011;67555;47.660;19.622;2023-09-30T09:18:35;9.82;;;6.05;;
78296;SDS011;67555;47.660;19.622;2023-09-30T09:21:08;11.52;;;5.32;;
78296;SDS011;67555;47.660;19.622;2023-09-30T09:23:39;7.72;;;5.60;;
78296;SDS011;67555;47.660;19.622;2023-09-30T09:26:31;9.98;;;5.43;;
78296;SDS011;67555;47.660;19.622;2023-09-30T09:29:03;12.70;;;5.55;;
78296;SDS011;67555;47.660;19.622;2023-09-30T09:31:35;11.40;;;5.38;;
78296;SDS011;67555;47.660;19.622;2023-09-30T09:34:12;9.05;;;5.40;;
78296;SDS011;67555;47.660;19.622;2023-09-30T09:36:43;8.10;;;5.93;;
78296;SDS011;67555;47.660;19.622;2023-09-30T09:39:11;14.35;;;5.50;;
78296;SDS011;67555;47.660;19.622;2023-09-30T09:41:51;13.10;;;6.13;;
78296;SDS011;67555;47.660;19.622;2023-09-30T09:44:19;10.95;;;6.60;;
78296;SDS011;67555;47.660;19.622;2023-09-30T09:46:47;12.93;;;5.32;;
78296;SDS011;67555;47.660;19.622;2023-09-30T09:49:17;6.68;;;3.88;;
78296;SDS011;67555;47.660;19.622;2023-09-30T09:51:43;12.27;;;5.88;;
78296;SDS011;67555;47.660;19.622;2023-09-30T09:54:11;13.15;;;6.65;;
78296;SDS011;67555;47.660;19.622;2023-09-30T09:56:37;10.48;;;6.38;;
78296;SDS011;67555;47.660;19.622;2023-09-30T09:59:04;6.85;;;4.53;;
78296;SDS011;67555;47.660;19.622;2023-09-30T10:01:32;7.95;;;4.65;;
78296;SDS011;67555;47.660;19.622;2023-09-30T10:04:00;9.80;;;4.90;;
78296;SDS011;67555;47.660;19.622;2023-09-30T10:06:26;11.07;;;6.20;;
78296;SDS011;67555;47.660;19.622;2023-09-30T10:08:53;9.98;;;5.22;;
78296;SDS011;67555;47.660;19.622;2023-09-30T10:11:21;7.00;;;4.90;;
78296;SDS011;67555;47.660;19.622;2023-09-30T10:13:57;8.25;;;5.82;;
78296;SDS011;67555;47.660;19.622;2023-09-30T10:19:10;9.95;;;5.32;;
78296;SDS011;67555;47.660;19.622;2023-09-30T10:21:37;7.82;;;4.78;;
78296;SDS011;67555;47.660;19.622;2023-09-30T10:29:40;20.00;;;6.20;;
78296;SDS011;67555;47.660;19.622;2023-09-30T10:32:08;11.25;;;5.35;;
78296;SDS011;67555;47.660;19.622;2023-09-30T10:34:34;8.27;;;5.55;;
78296;SDS011;67555;47.660;19.622;2023-09-30T10:37:19;15.02;;;5.22;;
78296;SDS011;67555;47.660;19.622;2023-09-30T10:39:55;13.55;;;5.80;;
78296;SDS011;67555;47.660;19.622;2023-09-30T10:42:45;12.88;;;6.20;;
78296;SDS011;67555;47.660;19.622;2023-09-30T10:53:21;8.65;;;5.05;;
78296;SDS011;67555;47.660;19.622;2023-09-30T10:55:57;15.18;;;6.25;;
78296;SDS011;67555;47.660;19.622;2023-09-30T11:01:03;9.20;;;4.63;;
78296;SDS011;67555;47.660;19.622;2023-09-30T11:03:29;10.13;;;5.57;;
78296;SDS011;67555;47.660;19.622;2023-09-30T11:05:55;9.93;;;4.32;;
78296;SDS011;67555;47.660;19.622;2023-09-30T11:08:21;7.55;;;4.82;;
78296;SDS011;67555;47.660;19.622;2023-09-30T11:10:51;9.32;;;4.97;;
78296;SDS011;67555;47.660;19.622;2023-09-30T11:13:19;6.65;;;4.78;;
78296;SDS011;67555;47.660;19.622;2023-09-30T11:15:45;18.85;;;5.50;;
78296;SDS011;67555;47.660;19.622;2023-09-30T11:18:15;12.80;;;5.32;;
78296;SDS011;67555;47.660;19.622;2023-09-30T11:20:43;10.15;;;5.57;;
78296;SDS011;67555;47.660;19.622;2023-09-30T11:23:11;9.35;;;4.32;;
78296;SDS011;67555;47.660;19.622;2023-09-30T11:25:38;6.55;;;4.72;;
78296;SDS011;67555;47.660;19.622;2023-09-30T11:30:58;9.40;;;5.20;;
78296;SDS011;67555;47.660;19.622;2023-09-30T11:33:25;10.23;;;4.80;;
78296;SDS011;67555;47.660;19.622;2023-09-30T11:36:01;10.38;;;4.80;;
78296;SDS011;67555;47.660;19.622;2023-09-30T11:38:31;6.22;;;4.55;;
78296;SDS011;67555;47.660;19.622;2023-09-30T11:41:05;8.43;;;4.32;;
78296;SDS011;67555;47.660;19.622;2023-09-30T11:43:32;9.23;;;4.85;;
78296;SDS011;67555;47.660;19.622;2023-09-30T11:46:09;7.75;;;5.38;;
78296;SDS011;67555;47.660;19.622;2023-09-30T11:51:28;11.55;;;4.95;;
78296;SDS011;67555;47.660;19.622;2023-09-30T11:53:54;9.40;;;4.88;;
78296;SDS011;67555;47.660;19.622;2023-09-30T11:56:21;12.68;;;4.95;;
78296;SDS011;67555;47.660;19.622;2023-09-30T11:58:52;13.85;;;4.95;;
78296;SDS011;67555;47.660;19.622;2023-09-30T12:01:19;8.65;;;4.45;;
78296;SDS011;67555;47.660;19.622;2023-09-30T12:03:47;12.65;;;5.60;;
78296;SDS011;67555;47.660;19.622;2023-09-30T12:06:13;10.50;;;5.13;;
78296;SDS011;67555;47.660;19.622;2023-09-30T12:08:41;7.80;;;4.60;;
78296;SDS011;67555;47.660;19.622;2023-09-30T12:11:07;8.02;;;5.03;;
78296;SDS011;67555;47.660;19.622;2023-09-30T12:13:33;9.23;;;4.82;;
78296;SDS011;67555;47.660;19.622;2023-09-30T12:15:59;8.48;;;4.28;;
78296;SDS011;67555;47.660;19.622;2023-09-30T12:18:24;8.50;;;5.90;;
78296;SDS011;67555;47.660;19.622;2023-09-30T12:20:51;8.65;;;5.05;;
78296;SDS011;67555;47.660;19.622;2023-09-30T12:23:19;6.90;;;4.82;;
78296;SDS011;67555;47.660;19.622;2023-09-30T12:25:45;8.13;;;4.68;;
78296;SDS011;67555;47.660;19.622;2023-09-30T12:28:12;7.28;;;4.80;;
78296;SDS011;67555;47.660;19.622;2023-09-30T12:30:39;11.13;;;5.28;;
78296;SDS011;67555;47.660;19.622;2023-09-30T12:33:05;8.48;;;5.13;;
78296;SDS011;67555;47.660;19.622;2023-09-30T12:35:32;11.57;;;6.07;;
78296;SDS011;67555;47.660;19.622;2023-09-30T12:37:58;7.75;;;5.15;;
78296;SDS011;67555;47.660;19.622;2023-09-30T12:40:24;11.13;;;5.07;;
78296;SDS011;67555;47.660;19.622;2023-09-30T12:42:50;12.38;;;5.50;;
78296;SDS011;67555;47.660;19.622;2023-09-30T12:45:16;8.38;;;5.90;;
78296;SDS011;67555;47.660;19.622;2023-09-30T12:47:43;12.73;;;5.72;;
78296;SDS011;67555;47.660;19.622;2023-09-30T12:50:09;10.77;;;4.97;;
78296;SDS011;67555;47.660;19.622;2023-09-30T12:52:35;6.82;;;4.40;;
78296;SDS011;67555;47.660;19.622;2023-09-30T12:55:03;10.45;;;5.47;;
78296;SDS011;67555;47.660;19.622;2023-09-30T12:57:30;7.75;;;5.03;;
78296;SDS011;67555;47.660;19.622;2023-09-30T12:59:56;8.20;;;6.13;;
78296;SDS011;67555;47.660;19.622;2023-09-30T13:02:22;13.77;;;6.72;;
78296;SDS011;67555;47.660;19.622;2023-09-30T13:04:48;10.13;;;5.47;;
78296;SDS011;67555;47.660;19.622;2023-09-30T13:07:14;7.20;;;4.95;;
78296;SDS011;67555;47.660;19.622;2023-09-30T13:09:40;11.10;;;5.82;;
78296;SDS011;67555;47.660;19.622;2023-09-30T13:12:07;9.45;;;5.68;;
78296;SDS011;67555;47.660;19.622;2023-09-30T13:14:33;14.77;;;4.78;;
78296;SDS011;67555;47.660;19.622;2023-09-30T13:16:59;11.73;;;5.20;;
78296;SDS011;67555;47.660;19.622;2023-09-30T13:19:26;11.10;;;5.60;;
78296;SDS011;67555;47.660;19.622;2023-09-30T13:21:52;10.00;;;5.38;;
78296;SDS011;67555;47.660;19.622;2023-09-30T13:24:21;7.40;;;4.70;;
78296;SDS011;67555;47.660;19.622;2023-09-30T13:26:47;12.13;;;6.20;;
78296;SDS011;67555;47.660;19.622;2023-09-30T13:29:14;8.40;;;5.72;;
78296;SDS011;67555;47.660;19.622;2023-09-30T13:31:41;11.77;;;5.43;;
78296;SDS011;67555;47.660;19.622;2023-09-30T13:34:08;9.15;;;5.35;;
78296;SDS011;67555;47.660;19.622;2023-09-30T13:36:34;12.65;;;5.25;;
78296;SDS011;67555;47.660;19.622;2023-09-30T13:39:00;12.38;;;5.78;;
78296;SDS011;67555;47.660;19.622;2023-09-30T13:41:26;10.65;;;5.07;;
78296;SDS011;67555;47.660;19.622;2023-09-30T13:43:52;9.93;;;5.00;;
78296;SDS011;67555;47.660;19.622;2023-09-30T13:46:18;6.78;;;4.90;;
78296;SDS011;67555;47.660;19.622;2023-09-30T13:48:46;9.82;;;4.45;;
78296;SDS011;67555;47.660;19.622;2023-09-30T13:51:16;9.95;;;5.10;;
78296;SDS011;67555;47.660;19.622;2023-09-30T13:53:41;7.30;;;4.88;;
78296;SDS011;67555;47.660;19.622;2023-09-30T13:56:08;12.75;;;5.00;;
78296;SDS011;67555;47.660;19.622;2023-09-30T13:58:35;7.85;;;4.45;;
78296;SDS011;67555;47.660;19.622;2023-09-30T14:01:01;18.55;;;5.95;;
78296;SDS011;67555;47.660;19.622;2023-09-30T14:03:28;11.43;;;5.22;;
78296;SDS011;67555;47.660;19.622;2023-09-30T14:05:54;9.75;;;5.10;;
78296;SDS011;67555;47.660;19.622;2023-09-30T14:08:24;9.98;;;5.22;;
78296;SDS011;67555;47.660;19.622;2023-09-30T14:10:50;9.43;;;5.18;;
78296;SDS011;67555;47.660;19.622;2023-09-30T14:13:19;7.53;;;3.97;;
78296;SDS011;67555;47.660;19.622;2023-09-30T14:15:45;9.80;;;5.15;;
78296;SDS011;67555;47.660;19.622;2023-09-30T14:18:11;9.43;;;5.80;;
78296;SDS011;67555;47.660;19.622;2023-09-30T14:20:37;10.60;;;5.00;;
78296;SDS011;67555;47.660;19.622;2023-09-30T14:23:03;10.32;;;5.18;;
78296;SDS011;67555;47.660;19.622;2023-09-30T14:25:29;9.73;;;5.03;;
78296;SDS011;67555;47.660;19.622;2023-09-30T14:27:54;9.88;;;5.47;;
78296;SDS011;67555;47.660;19.622;2023-09-30T14:30:21;8.77;;;5.40;;
78296;SDS011;67555;47.660;19.622;2023-09-30T14:32:47;8.48;;;5.00;;
78296;SDS011;67555;47.660;19.622;2023-09-30T14:35:12;9.73;;;5.35;;
78296;SDS011;67555;47.660;19.622;2023-09-30T14:37:38;9.50;;;4.35;;
78296;SDS011;67555;47.660;19.622;2023-09-30T14:40:05;11.93;;;5.53;;
78296;SDS011;67555;47.660;19.622;2023-09-30T14:42:36;11.25;;;7.03;;
78296;SDS011;67555;47.660;19.622;2023-09-30T14:45:07;9.65;;;4.72;;
78296;SDS011;67555;47.660;19.622;2023-09-30T14:47:33;9.90;;;5.75;;
78296;SDS011;67555;47.660;19.622;2023-09-30T14:49:59;11.75;;;5.40;;
78296;SDS011;67555;47.660;19.622;2023-09-30T14:52:28;8.55;;;5.57;;
78296;SDS011;67555;47.660;19.622;2023-09-30T14:54:54;8.38;;;5.05;;
78296;SDS011;67555;47.660;19.622;2023-09-30T14:57:20;15.93;;;5.05;;
78296;SDS011;67555;47.660;19.622;2023-09-30T14:59:47;9.45;;;5.15;;
78296;SDS011;67555;47.660;19.622;2023-09-30T15:02:13;11.05;;;5.45;;